sensor_id;sensor_type;location;lat;lon;timestamp;P1;durP1;ratioP1;P2;durP2;ratioP2
48665;SDS011;34452;50.796;4.994;2022-10-16T00:01:22;1.88;;;0.40;;
48665;SDS011;34452;50.796;4.994;2022-10-16T00:03:51;1.52;;;0.50;;
48665;SDS011;34452;50.796;4.994;2022-10-16T00:06:17;1.67;;;0.70;;
48665;SDS011;34452;50.796;4.994;2022-10-16T00:08:45;1.33;;;0.80;;
48665;SDS011;34452;50.796;4.994;2022-10-16T00:11:20;3.38;;;0.57;;
48665;SDS011;34452;50.796;4.994;2022-10-16T00:13:48;1.85;;;0.60;;
48665;SDS011;34452;50.796;4.994;2022-10-16T00:16:16;2.70;;;0.65;;
48665;SDS011;34452;50.796;4.994;2022-10-16T00:18:42;2.85;;;0.50;;
48665;SDS011;34452;50.796;4.994;2022-10-16T00:21:09;2.53;;;0.65;;
48665;SDS011;34452;50.796;4.994;2022-10-16T00:23:37;3.15;;;0.52;;
48665;SDS011;34452;50.796;4.994;2022-10-16T00:26:07;3.88;;;0.47;;
48665;SDS011;34452;50.796;4.994;2022-10-16T00:28:37;1.15;;;0.50;;
48665;SDS011;34452;50.796;4.994;2022-10-16T00:31:06;0.70;;;0.70;;
48665;SDS011;34452;50.796;4.994;2022-10-16T00:33:34;0.57;;;0.43;;
48665;SDS011;34452;50.796;4.994;2022-10-16T00:36:01;2.05;;;0.63;;
48665;SDS011;34452;50.796;4.994;2022-10-16T00:38:27;3.33;;;0.40;;
48665;SDS011;34452;50.796;4.994;2022-10-16T00:40:53;1.42;;;0.68;;
48665;SDS011;34452;50.796;4.994;2022-10-16T00:46:00;8.07;;;0.70;;
48665;SDS011;34452;50.796;4.994;2022-10-16T00:48:27;2.08;;;0.50;;
48665;SDS011;34452;50.796;4.994;2022-10-16T00:50:53;0.85;;;0.63;;
48665;SDS011;34452;50.796;4.994;2022-10-16T00:53:19;1.15;;;0.50;;
48665;SDS011;34452;50.796;4.994;2022-10-16T00:55:46;4.80;;;0.60;;
48665;SDS011;34452;50.796;4.994;2022-10-16T00:58:12;1.88;;;0.70;;
48665;SDS011;34452;50.796;4.994;2022-10-16T01:00:38;2.78;;;0.60;;
48665;SDS011;34452;50.796;4.994;2022-10-16T01:03:22;1.00;;;0.50;;
48665;SDS011;34452;50.796;4.994;2022-10-16T01:14:13;1.58;;;0.70;;
48665;SDS011;34452;50.796;4.994;2022-10-16T01:16:47;2.38;;;0.50;;
48665;SDS011;34452;50.796;4.994;2022-10-16T01:19:31;1.40;;;0.80;;
48665;SDS011;34452;50.796;4.994;2022-10-16T01:22:10;2.85;;;0.70;;
48665;SDS011;34452;50.796;4.994;2022-10-16T01:30:00;0.88;;;0.50;;
48665;SDS011;34452;50.796;4.994;2022-10-16T01:32:49;3.10;;;0.52;;
48665;SDS011;34452;50.796;4.994;2022-10-16T01:35:23;0.50;;;0.50;;
48665;SDS011;34452;50.796;4.994;2022-10-16T01:40:47;1.55;;;0.80;;
48665;SDS011;34452;50.796;4.994;2022-10-16T01:43:19;2.30;;;0.77;;
48665;SDS011;34452;50.796;4.994;2022-10-16T01:45:47;2.40;;;0.70;;
48665;SDS011;34452;50.796;4.994;2022-10-16T01:48:16;1.40;;;0.63;;
48665;SDS011;34452;50.796;4.994;2022-10-16T01:50:44;1.50;;;0.82;;
48665;SDS011;34452;50.796;4.994;2022-10-16T01:53:22;1.50;;;0.70;;
48665;SDS011;34452;50.796;4.994;2022-10-16T01:55:48;3.22;;;0.65;;
48665;SDS011;34452;50.796;4.994;2022-10-16T01:58:17;2.05;;;0.65;;
48665;SDS011;34452;50.796;4.994;2022-10-16T02:00:43;1.63;;;1.00;;
48665;SDS011;34452;50.796;4.994;2022-10-16T02:03:11;5.45;;;0.80;;
48665;SDS011;34452;50.796;4.994;2022-10-16T02:05:47;0.90;;;0.60;;
48665;SDS011;34452;50.796;4.994;2022-10-16T02:08:22;3.80;;;0.60;;
48665;SDS011;34452;50.796;4.994;2022-10-16T02:10:51;1.23;;;0.70;;
48665;SDS011;34452;50.796;4.994;2022-10-16T02:13:18;3.92;;;0.80;;
48665;SDS011;34452;50.796;4.994;2022-10-16T02:15:49;3.85;;;0.80;;
48665;SDS011;34452;50.796;4.994;2022-10-16T02:18:15;3.83;;;0.80;;
48665;SDS011;34452;50.796;4.994;2022-10-16T02:21:28;3.40;;;0.90;;
48665;SDS011;34452;50.796;4.994;2022-10-16T02:26:23;2.78;;;0.82;;
48665;SDS011;34452;50.796;4.994;2022-10-16T02:28:58;6.22;;;1.23;;
48665;SDS011;34452;50.796;4.994;2022-10-16T02:31:30;3.28;;;1.40;;
48665;SDS011;34452;50.796;4.994;2022-10-16T02:33:59;3.40;;;0.90;;
48665;SDS011;34452;50.796;4.994;2022-10-16T02:36:26;5.97;;;1.05;;
48665;SDS011;34452;50.796;4.994;2022-10-16T02:38:52;3.80;;;0.80;;
48665;SDS011;34452;50.796;4.994;2022-10-16T02:41:20;2.38;;;0.60;;
48665;SDS011;34452;50.796;4.994;2022-10-16T02:43:46;1.23;;;0.80;;
48665;SDS011;34452;50.796;4.994;2022-10-16T02:46:12;1.53;;;0.87;;
48665;SDS011;34452;50.796;4.994;2022-10-16T02:48:38;2.67;;;0.80;;
48665;SDS011;34452;50.796;4.994;2022-10-16T02:51:04;0.90;;;0.70;;
48665;SDS011;34452;50.796;4.994;2022-10-16T02:53:30;4.32;;;0.88;;
48665;SDS011;34452;50.796;4.994;2022-10-16T02:55:56;1.52;;;0.82;;
48665;SDS011;34452;50.796;4.994;2022-10-16T02:58:22;5.47;;;1.02;;
48665;SDS011;34452;50.796;4.994;2022-10-16T03:00:47;2.17;;;0.77;;
48665;SDS011;34452;50.796;4.994;2022-10-16T03:03:13;3.30;;;1.03;;
48665;SDS011;34452;50.796;4.994;2022-10-16T03:05:39;3.20;;;0.97;;
48665;SDS011;34452;50.796;4.994;2022-10-16T03:08:04;2.63;;;1.10;;
48665;SDS011;34452;50.796;4.994;2022-10-16T03:10:30;2.70;;;1.15;;
48665;SDS011;34452;50.796;4.994;2022-10-16T03:12:56;2.30;;;0.87;;
48665;SDS011;34452;50.796;4.994;2022-10-16T03:15:22;1.48;;;1.20;;
48665;SDS011;34452;50.796;4.994;2022-10-16T03:17:47;1.30;;;0.70;;
48665;SDS011;34452;50.796;4.994;2022-10-16T03:20:13;1.07;;;0.80;;
48665;SDS011;34452;50.796;4.994;2022-10-16T03:22:39;2.60;;;1.55;;
48665;SDS011;34452;50.796;4.994;2022-10-16T03:25:05;3.33;;;0.82;;
48665;SDS011;34452;50.796;4.994;2022-10-16T03:27:31;2.65;;;1.10;;
48665;SDS011;34452;50.796;4.994;2022-10-16T03:29:56;8.50;;;1.10;;
48665;SDS011;34452;50.796;4.994;2022-10-16T03:32:22;4.60;;;0.90;;
48665;SDS011;34452;50.796;4.994;2022-10-16T03:34:49;4.75;;;1.00;;
48665;SDS011;34452;50.796;4.994;2022-10-16T03:37:15;1.63;;;0.90;;
48665;SDS011;34452;50.796;4.994;2022-10-16T03:39:41;3.65;;;0.90;;
48665;SDS011;34452;50.796;4.994;2022-10-16T03:42:06;2.57;;;0.63;;
48665;SDS011;34452;50.796;4.994;2022-10-16T03:44:32;3.10;;;1.07;;
48665;SDS011;34452;50.796;4.994;2022-10-16T03:46:58;7.77;;;1.00;;
48665;SDS011;34452;50.796;4.994;2022-10-16T03:49:23;2.63;;;0.90;;
48665;SDS011;34452;50.796;4.994;2022-10-16T03:51:49;1.60;;;1.00;;
48665;SDS011;34452;50.796;4.994;2022-10-16T03:54:15;2.87;;;1.10;;
48665;SDS011;34452;50.796;4.994;2022-10-16T03:56:40;4.90;;;0.90;;
48665;SDS011;34452;50.796;4.994;2022-10-16T03:59:06;14.57;;;1.70;;
48665;SDS011;34452;50.796;4.994;2022-10-16T04:01:32;3.43;;;1.10;;
48665;SDS011;34452;50.796;4.994;2022-10-16T04:03:57;6.67;;;1.27;;
48665;SDS011;34452;50.796;4.994;2022-10-16T04:06:23;1.63;;;1.10;;
48665;SDS011;34452;50.796;4.994;2022-10-16T04:08:48;1.93;;;1.00;;
48665;SDS011;34452;50.796;4.994;2022-10-16T04:11:14;7.27;;;1.20;;
48665;SDS011;34452;50.796;4.994;2022-10-16T04:13:40;5.75;;;1.13;;
48665;SDS011;34452;50.796;4.994;2022-10-16T04:16:06;4.13;;;1.38;;
48665;SDS011;34452;50.796;4.994;2022-10-16T04:18:32;4.25;;;1.45;;
48665;SDS011;34452;50.796;4.994;2022-10-16T04:21:04;2.00;;;1.42;;
48665;SDS011;34452;50.796;4.994;2022-10-16T04:23:31;3.13;;;1.17;;
48665;SDS011;34452;50.796;4.994;2022-10-16T04:25:57;3.85;;;1.67;;
48665;SDS011;34452;50.796;4.994;2022-10-16T04:28:23;3.42;;;1.92;;
48665;SDS011;34452;50.796;4.994;2022-10-16T04:30:48;3.13;;;1.40;;
48665;SDS011;34452;50.796;4.994;2022-10-16T04:33:14;1.73;;;1.20;;
48665;SDS011;34452;50.796;4.994;2022-10-16T04:35:40;2.80;;;1.40;;
48665;SDS011;34452;50.796;4.994;2022-10-16T04:38:05;1.53;;;1.30;;
48665;SDS011;34452;50.796;4.994;2022-10-16T04:40:31;4.97;;;2.20;;
48665;SDS011;34452;50.796;4.994;2022-10-16T04:43:02;4.22;;;1.45;;
48665;SDS011;34452;50.796;4.994;2022-10-16T04:45:28;2.30;;;1.45;;
48665;SDS011;34452;50.796;4.994;2022-10-16T04:47:58;5.95;;;2.08;;
48665;SDS011;34452;50.796;4.994;2022-10-16T04:50:24;2.92;;;1.27;;
48665;SDS011;34452;50.796;4.994;2022-10-16T04:52:50;10.18;;;1.80;;
48665;SDS011;34452;50.796;4.994;2022-10-16T04:55:15;4.63;;;1.50;;
48665;SDS011;34452;50.796;4.994;2022-10-16T04:57:41;3.22;;;1.45;;
48665;SDS011;34452;50.796;4.994;2022-10-16T05:00:07;15.53;;;1.90;;
48665;SDS011;34452;50.796;4.994;2022-10-16T05:02:33;4.80;;;1.58;;
48665;SDS011;34452;50.796;4.994;2022-10-16T05:04:59;1.45;;;1.35;;
48665;SDS011;34452;50.796;4.994;2022-10-16T05:07:25;8.80;;;2.20;;
48665;SDS011;34452;50.796;4.994;2022-10-16T05:09:51;2.90;;;1.50;;
48665;SDS011;34452;50.796;4.994;2022-10-16T05:12:16;4.43;;;1.73;;
48665;SDS011;34452;50.796;4.994;2022-10-16T05:14:42;3.15;;;1.73;;
48665;SDS011;34452;50.796;4.994;2022-10-16T05:17:08;4.90;;;1.93;;
48665;SDS011;34452;50.796;4.994;2022-10-16T05:19:34;2.53;;;1.50;;
48665;SDS011;34452;50.796;4.994;2022-10-16T05:22:00;4.10;;;1.70;;
48665;SDS011;34452;50.796;4.994;2022-10-16T05:24:26;3.58;;;1.52;;
48665;SDS011;34452;50.796;4.994;2022-10-16T05:26:51;3.85;;;1.65;;
48665;SDS011;34452;50.796;4.994;2022-10-16T05:29:17;2.33;;;1.45;;
48665;SDS011;34452;50.796;4.994;2022-10-16T05:31:43;4.97;;;1.40;;
48665;SDS011;34452;50.796;4.994;2022-10-16T05:34:09;7.55;;;1.45;;
48665;SDS011;34452;50.796;4.994;2022-10-16T05:36:35;4.77;;;1.77;;
48665;SDS011;34452;50.796;4.994;2022-10-16T05:39:00;4.13;;;1.48;;
48665;SDS011;34452;50.796;4.994;2022-10-16T05:41:26;5.85;;;1.63;;
48665;SDS011;34452;50.796;4.994;2022-10-16T05:43:52;5.00;;;1.45;;
48665;SDS011;34452;50.796;4.994;2022-10-16T05:46:18;5.90;;;1.70;;
48665;SDS011;34452;50.796;4.994;2022-10-16T05:48:44;3.83;;;1.50;;
48665;SDS011;34452;50.796;4.994;2022-10-16T05:51:11;3.80;;;1.70;;
48665;SDS011;34452;50.796;4.994;2022-10-16T05:53:38;4.50;;;1.48;;
48665;SDS011;34452;50.796;4.994;2022-10-16T05:56:06;4.25;;;1.55;;
48665;SDS011;34452;50.796;4.994;2022-10-16T05:58:35;2.90;;;1.13;;
48665;SDS011;34452;50.796;4.994;2022-10-16T06:01:03;4.15;;;1.40;;
48665;SDS011;34452;50.796;4.994;2022-10-16T06:03:31;5.75;;;1.65;;
48665;SDS011;34452;50.796;4.994;2022-10-16T06:05:57;2.60;;;1.40;;
48665;SDS011;34452;50.796;4.994;2022-10-16T06:08:23;6.13;;;1.63;;
48665;SDS011;34452;50.796;4.994;2022-10-16T06:10:49;5.35;;;1.45;;
48665;SDS011;34452;50.796;4.994;2022-10-16T06:13:29;5.70;;;1.45;;
48665;SDS011;34452;50.796;4.994;2022-10-16T06:15:56;3.17;;;1.60;;
48665;SDS011;34452;50.796;4.994;2022-10-16T06:18:23;5.18;;;1.30;;
48665;SDS011;34452;50.796;4.994;2022-10-16T06:20:49;3.15;;;1.52;;
48665;SDS011;34452;50.796;4.994;2022-10-16T06:23:15;2.90;;;1.55;;
48665;SDS011;34452;50.796;4.994;2022-10-16T06:25:40;2.10;;;1.30;;
48665;SDS011;34452;50.796;4.994;2022-10-16T06:28:06;5.40;;;1.80;;
48665;SDS011;34452;50.796;4.994;2022-10-16T06:30:32;5.87;;;1.17;;
48665;SDS011;34452;50.796;4.994;2022-10-16T06:32:57;11.02;;;1.67;;
48665;SDS011;34452;50.796;4.994;2022-10-16T06:35:23;5.07;;;1.50;;
48665;SDS011;34452;50.796;4.994;2022-10-16T06:37:49;4.55;;;1.55;;
48665;SDS011;34452;50.796;4.994;2022-10-16T06:40:14;4.50;;;1.20;;
48665;SDS011;34452;50.796;4.994;2022-10-16T06:42:41;2.22;;;1.50;;
48665;SDS011;34452;50.796;4.994;2022-10-16T06:47:32;6.40;;;1.15;;
48665;SDS011;34452;50.796;4.994;2022-10-16T06:49:58;13.05;;;1.92;;
48665;SDS011;34452;50.796;4.994;2022-10-16T06:52:24;3.72;;;1.73;;
48665;SDS011;34452;50.796;4.994;2022-10-16T06:54:49;4.50;;;1.57;;
48665;SDS011;34452;50.796;4.994;2022-10-16T06:57:15;4.68;;;1.63;;
48665;SDS011;34452;50.796;4.994;2022-10-16T06:59:41;7.10;;;2.95;;
48665;SDS011;34452;50.796;4.994;2022-10-16T07:02:07;4.37;;;1.80;;
48665;SDS011;34452;50.796;4.994;2022-10-16T07:04:35;3.58;;;1.40;;
48665;SDS011;34452;50.796;4.994;2022-10-16T07:07:01;2.40;;;1.30;;
48665;SDS011;34452;50.796;4.994;2022-10-16T07:09:27;6.18;;;1.50;;
48665;SDS011;34452;50.796;4.994;2022-10-16T07:11:52;4.68;;;1.52;;
48665;SDS011;34452;50.796;4.994;2022-10-16T07:14:18;3.35;;;1.27;;
48665;SDS011;34452;50.796;4.994;2022-10-16T07:16:45;3.78;;;1.50;;
48665;SDS011;34452;50.796;4.994;2022-10-16T07:19:11;5.88;;;1.40;;
48665;SDS011;34452;50.796;4.994;2022-10-16T07:21:40;7.55;;;1.52;;
48665;SDS011;34452;50.796;4.994;2022-10-16T07:24:07;2.42;;;1.17;;
48665;SDS011;34452;50.796;4.994;2022-10-16T07:26:37;3.72;;;1.58;;
48665;SDS011;34452;50.796;4.994;2022-10-16T07:29:04;3.28;;;1.40;;
48665;SDS011;34452;50.796;4.994;2022-10-16T07:31:32;3.72;;;1.60;;
48665;SDS011;34452;50.796;4.994;2022-10-16T07:33:58;3.42;;;1.52;;
48665;SDS011;34452;50.796;4.994;2022-10-16T07:36:24;3.30;;;1.20;;
48665;SDS011;34452;50.796;4.994;2022-10-16T07:38:50;4.30;;;1.23;;
48665;SDS011;34452;50.796;4.994;2022-10-16T07:41:17;5.10;;;2.00;;
48665;SDS011;34452;50.796;4.994;2022-10-16T07:43:47;4.10;;;1.50;;
48665;SDS011;34452;50.796;4.994;2022-10-16T07:46:14;3.85;;;1.40;;
48665;SDS011;34452;50.796;4.994;2022-10-16T07:48:41;5.32;;;1.35;;
48665;SDS011;34452;50.796;4.994;2022-10-16T07:51:10;3.83;;;1.50;;
48665;SDS011;34452;50.796;4.994;2022-10-16T07:53:36;4.82;;;1.42;;
48665;SDS011;34452;50.796;4.994;2022-10-16T07:56:03;5.55;;;1.20;;
48665;SDS011;34452;50.796;4.994;2022-10-16T07:58:31;2.92;;;1.20;;
48665;SDS011;34452;50.796;4.994;2022-10-16T08:00:57;3.28;;;1.38;;
48665;SDS011;34452;50.796;4.994;2022-10-16T08:03:24;4.55;;;1.50;;
48665;SDS011;34452;50.796;4.994;2022-10-16T08:05:50;3.25;;;1.48;;
48665;SDS011;34452;50.796;4.994;2022-10-16T08:08:17;6.90;;;1.17;;
48665;SDS011;34452;50.796;4.994;2022-10-16T08:10:43;2.47;;;1.23;;
48665;SDS011;34452;50.796;4.994;2022-10-16T08:15:35;2.13;;;1.10;;
48665;SDS011;34452;50.796;4.994;2022-10-16T08:18:02;4.78;;;1.17;;
48665;SDS011;34452;50.796;4.994;2022-10-16T08:20:30;3.70;;;1.02;;
48665;SDS011;34452;50.796;4.994;2022-10-16T08:22:57;1.40;;;1.00;;
48665;SDS011;34452;50.796;4.994;2022-10-16T08:25:25;1.80;;;0.93;;
48665;SDS011;34452;50.796;4.994;2022-10-16T08:27:51;4.07;;;1.15;;
48665;SDS011;34452;50.796;4.994;2022-10-16T08:30:17;1.98;;;1.00;;
48665;SDS011;34452;50.796;4.994;2022-10-16T08:32:44;4.47;;;1.38;;
48665;SDS011;34452;50.796;4.994;2022-10-16T08:35:10;6.68;;;1.30;;
48665;SDS011;34452;50.796;4.994;2022-10-16T08:37:37;6.32;;;1.23;;
48665;SDS011;34452;50.796;4.994;2022-10-16T08:45:07;1.77;;;1.02;;
48665;SDS011;34452;50.796;4.994;2022-10-16T08:48:14;3.47;;;0.93;;
48665;SDS011;34452;50.796;4.994;2022-10-16T08:50:41;5.57;;;1.10;;
48665;SDS011;34452;50.796;4.994;2022-10-16T08:53:10;2.65;;;0.98;;
48665;SDS011;34452;50.796;4.994;2022-10-16T08:55:50;1.48;;;1.10;;
48665;SDS011;34452;50.796;4.994;2022-10-16T08:58:18;5.03;;;1.05;;
48665;SDS011;34452;50.796;4.994;2022-10-16T09:00:47;4.15;;;1.20;;
48665;SDS011;34452;50.796;4.994;2022-10-16T09:06:52;5.53;;;1.17;;
48665;SDS011;34452;50.796;4.994;2022-10-16T09:12:35;5.50;;;1.17;;
48665;SDS011;34452;50.796;4.994;2022-10-16T09:18:03;4.00;;;1.30;;
48665;SDS011;34452;50.796;4.994;2022-10-16T09:20:59;5.20;;;1.10;;
48665;SDS011;34452;50.796;4.994;2022-10-16T09:23:36;4.88;;;1.20;;
48665;SDS011;34452;50.796;4.994;2022-10-16T09:26:02;4.45;;;1.40;;
48665;SDS011;34452;50.796;4.994;2022-10-16T09:28:34;2.83;;;1.02;;
48665;SDS011;34452;50.796;4.994;2022-10-16T09:30:59;5.82;;;1.40;;
48665;SDS011;34452;50.796;4.994;2022-10-16T09:33:28;4.90;;;1.30;;
48665;SDS011;34452;50.796;4.994;2022-10-16T09:36:04;3.40;;;1.23;;
48665;SDS011;34452;50.796;4.994;2022-10-16T09:38:32;5.43;;;1.40;;
48665;SDS011;34452;50.796;4.994;2022-10-16T09:41:01;3.97;;;1.00;;
48665;SDS011;34452;50.796;4.994;2022-10-16T09:43:41;5.68;;;1.10;;
48665;SDS011;34452;50.796;4.994;2022-10-16T09:48:51;7.30;;;1.30;;
48665;SDS011;34452;50.796;4.994;2022-10-16T09:54:33;4.18;;;1.35;;
48665;SDS011;34452;50.796;4.994;2022-10-16T09:56:52;3.53;;;1.60;;
48665;SDS011;34452;50.796;4.994;2022-10-16T09:59:19;6.70;;;1.35;;
48665;SDS011;34452;50.796;4.994;2022-10-16T10:01:52;10.32;;;1.20;;
48665;SDS011;34452;50.796;4.994;2022-10-16T10:04:20;2.65;;;1.00;;
48665;SDS011;34452;50.796;4.994;2022-10-16T10:09:23;6.95;;;1.42;;
48665;SDS011;34452;50.796;4.994;2022-10-16T10:12:00;7.32;;;1.38;;
48665;SDS011;34452;50.796;4.994;2022-10-16T10:33:52;7.97;;;1.33;;
48665;SDS011;34452;50.796;4.994;2022-10-16T10:36:22;8.55;;;1.20;;
48665;SDS011;34452;50.796;4.994;2022-10-16T10:39:01;4.28;;;1.13;;
48665;SDS011;34452;50.796;4.994;2022-10-16T10:47:22;3.20;;;0.85;;
48665;SDS011;34452;50.796;4.994;2022-10-16T10:52:59;5.45;;;0.90;;
48665;SDS011;34452;50.796;4.994;2022-10-16T10:55:48;6.93;;;1.40;;
48665;SDS011;34452;50.796;4.994;2022-10-16T11:01:32;4.82;;;1.25;;
48665;SDS011;34452;50.796;4.994;2022-10-16T11:07:27;8.55;;;1.40;;
48665;SDS011;34452;50.796;4.994;2022-10-16T11:10:12;9.43;;;1.02;;
48665;SDS011;34452;50.796;4.994;2022-10-16T11:12:49;3.38;;;0.93;;
48665;SDS011;34452;50.796;4.994;2022-10-16T11:15:31;2.45;;;0.70;;
48665;SDS011;34452;50.796;4.994;2022-10-16T11:18:04;7.60;;;1.35;;
48665;SDS011;34452;50.796;4.994;2022-10-16T11:20:42;4.43;;;1.23;;
48665;SDS011;34452;50.796;4.994;2022-10-16T11:23:22;5.18;;;1.05;;
48665;SDS011;34452;50.796;4.994;2022-10-16T11:25:49;3.88;;;0.80;;
48665;SDS011;34452;50.796;4.994;2022-10-16T11:31:08;6.82;;;1.05;;
48665;SDS011;34452;50.796;4.994;2022-10-16T11:33:43;8.00;;;1.58;;
48665;SDS011;34452;50.796;4.994;2022-10-16T11:38:54;6.30;;;1.10;;
48665;SDS011;34452;50.796;4.994;2022-10-16T11:41:29;4.47;;;0.80;;
48665;SDS011;34452;50.796;4.994;2022-10-16T11:44:14;6.13;;;1.13;;
48665;SDS011;34452;50.796;4.994;2022-10-16T11:49:52;2.47;;;0.57;;
48665;SDS011;34452;50.796;4.994;2022-10-16T11:52:28;6.13;;;0.90;;
48665;SDS011;34452;50.796;4.994;2022-10-16T11:57:33;3.50;;;0.90;;
48665;SDS011;34452;50.796;4.994;2022-10-16T12:00:51;2.35;;;0.82;;
48665;SDS011;34452;50.796;4.994;2022-10-16T12:08:30;2.55;;;0.93;;
48665;SDS011;34452;50.796;4.994;2022-10-16T12:11:09;3.42;;;1.15;;
48665;SDS011;34452;50.796;4.994;2022-10-16T12:13:47;3.65;;;1.60;;
48665;SDS011;34452;50.796;4.994;2022-10-16T12:18:42;6.27;;;0.90;;
48665;SDS011;34452;50.796;4.994;2022-10-16T12:21:09;2.85;;;0.57;;
48665;SDS011;34452;50.796;4.994;2022-10-16T12:23:48;5.53;;;0.95;;
48665;SDS011;34452;50.796;4.994;2022-10-16T12:26:32;1.65;;;0.55;;
48665;SDS011;34452;50.796;4.994;2022-10-16T12:29:18;3.40;;;0.70;;
48665;SDS011;34452;50.796;4.994;2022-10-16T12:31:53;4.40;;;0.70;;
48665;SDS011;34452;50.796;4.994;2022-10-16T12:37:24;2.65;;;0.75;;
48665;SDS011;34452;50.796;4.994;2022-10-16T12:40:11;4.18;;;0.80;;
48665;SDS011;34452;50.796;4.994;2022-10-16T12:42:58;2.28;;;0.70;;
48665;SDS011;34452;50.796;4.994;2022-10-16T12:47:57;11.00;;;0.70;;
48665;SDS011;34452;50.796;4.994;2022-10-16T12:50:32;4.85;;;0.80;;
48665;SDS011;34452;50.796;4.994;2022-10-16T12:53:03;3.97;;;0.63;;
48665;SDS011;34452;50.796;4.994;2022-10-16T12:55:45;3.42;;;0.93;;
48665;SDS011;34452;50.796;4.994;2022-10-16T13:21:16;9.55;;;1.65;;
48665;SDS011;34452;50.796;4.994;2022-10-16T13:29:13;2.78;;;0.70;;
48665;SDS011;34452;50.796;4.994;2022-10-16T13:31:39;1.90;;;0.45;;
48665;SDS011;34452;50.796;4.994;2022-10-16T13:34:10;2.90;;;1.05;;
48665;SDS011;34452;50.796;4.994;2022-10-16T13:36:46;2.97;;;1.13;;
48665;SDS011;34452;50.796;4.994;2022-10-16T13:39:22;2.70;;;0.70;;
48665;SDS011;34452;50.796;4.994;2022-10-16T13:44:28;5.10;;;0.60;;
48665;SDS011;34452;50.796;4.994;2022-10-16T13:47:01;2.45;;;0.47;;
48665;SDS011;34452;50.796;4.994;2022-10-16T13:49:27;2.45;;;0.60;;
48665;SDS011;34452;50.796;4.994;2022-10-16T13:51:54;3.72;;;0.60;;
48665;SDS011;34452;50.796;4.994;2022-10-16T13:54:21;3.65;;;0.50;;
48665;SDS011;34452;50.796;4.994;2022-10-16T13:56:47;3.78;;;0.90;;
48665;SDS011;34452;50.796;4.994;2022-10-16T14:01:58;4.13;;;0.68;;
48665;SDS011;34452;50.796;4.994;2022-10-16T14:04:31;3.35;;;0.63;;
48665;SDS011;34452;50.796;4.994;2022-10-16T14:06:58;4.82;;;0.90;;
48665;SDS011;34452;50.796;4.994;2022-10-16T14:11:57;3.58;;;0.90;;
48665;SDS011;34452;50.796;4.994;2022-10-16T14:14:39;2.63;;;0.45;;
48665;SDS011;34452;50.796;4.994;2022-10-16T14:17:43;3.97;;;0.55;;
48665;SDS011;34452;50.796;4.994;2022-10-16T14:20:04;2.08;;;0.80;;
48665;SDS011;34452;50.796;4.994;2022-10-16T14:22:35;2.83;;;0.55;;
48665;SDS011;34452;50.796;4.994;2022-10-16T14:27:44;4.63;;;0.38;;
48665;SDS011;34452;50.796;4.994;2022-10-16T14:30:12;2.17;;;0.50;;
48665;SDS011;34452;50.796;4.994;2022-10-16T14:32:56;0.43;;;0.30;;
48665;SDS011;34452;50.796;4.994;2022-10-16T14:35:27;5.07;;;0.65;;
48665;SDS011;34452;50.796;4.994;2022-10-16T14:37:56;3.30;;;0.50;;
48665;SDS011;34452;50.796;4.994;2022-10-16T14:40:24;4.53;;;0.30;;
48665;SDS011;34452;50.796;4.994;2022-10-16T14:42:55;3.33;;;0.50;;
48665;SDS011;34452;50.796;4.994;2022-10-16T14:45:22;2.47;;;0.63;;
48665;SDS011;34452;50.796;4.994;2022-10-16T14:47:55;1.25;;;0.50;;
48665;SDS011;34452;50.796;4.994;2022-10-16T14:50:39;2.10;;;0.45;;
48665;SDS011;34452;50.796;4.994;2022-10-16T14:53:10;1.85;;;0.43;;
48665;SDS011;34452;50.796;4.994;2022-10-16T14:55:37;2.88;;;0.47;;
48665;SDS011;34452;50.796;4.994;2022-10-16T14:58:04;3.53;;;0.65;;
48665;SDS011;34452;50.796;4.994;2022-10-16T15:00:29;2.05;;;0.50;;
48665;SDS011;34452;50.796;4.994;2022-10-16T15:02:55;1.17;;;0.40;;
48665;SDS011;34452;50.796;4.994;2022-10-16T15:05:25;1.48;;;0.40;;
48665;SDS011;34452;50.796;4.994;2022-10-16T15:07:52;5.82;;;0.43;;
48665;SDS011;34452;50.796;4.994;2022-10-16T15:10:19;3.60;;;0.43;;
48665;SDS011;34452;50.796;4.994;2022-10-16T15:12:51;1.85;;;0.30;;
48665;SDS011;34452;50.796;4.994;2022-10-16T15:17:51;1.77;;;0.70;;
48665;SDS011;34452;50.796;4.994;2022-10-16T15:20:19;7.13;;;0.70;;
48665;SDS011;34452;50.796;4.994;2022-10-16T15:27:45;2.75;;;1.23;;
48665;SDS011;34452;50.796;4.994;2022-10-16T15:30:11;2.17;;;1.15;;
48665;SDS011;34452;50.796;4.994;2022-10-16T15:32:36;1.55;;;0.90;;
48665;SDS011;34452;50.796;4.994;2022-10-16T15:35:02;8.65;;;0.73;;
48665;SDS011;34452;50.796;4.994;2022-10-16T15:37:28;2.05;;;0.68;;
48665;SDS011;34452;50.796;4.994;2022-10-16T15:39:54;1.07;;;0.50;;
48665;SDS011;34452;50.796;4.994;2022-10-16T15:42:19;4.70;;;0.80;;
48665;SDS011;34452;50.796;4.994;2022-10-16T15:44:45;5.00;;;0.68;;
48665;SDS011;34452;50.796;4.994;2022-10-16T15:47:11;2.55;;;0.60;;
48665;SDS011;34452;50.796;4.994;2022-10-16T15:49:37;1.85;;;0.52;;
48665;SDS011;34452;50.796;4.994;2022-10-16T15:52:04;7.50;;;1.45;;
48665;SDS011;34452;50.796;4.994;2022-10-16T15:54:30;15.20;;;3.70;;
48665;SDS011;34452;50.796;4.994;2022-10-16T15:56:55;4.90;;;1.65;;
48665;SDS011;34452;50.796;4.994;2022-10-16T15:59:21;4.93;;;1.40;;
48665;SDS011;34452;50.796;4.994;2022-10-16T16:01:47;5.00;;;1.20;;
48665;SDS011;34452;50.796;4.994;2022-10-16T16:04:12;4.10;;;1.00;;
48665;SDS011;34452;50.796;4.994;2022-10-16T16:06:38;2.65;;;0.70;;
48665;SDS011;34452;50.796;4.994;2022-10-16T16:09:09;3.17;;;0.98;;
48665;SDS011;34452;50.796;4.994;2022-10-16T16:11:36;5.90;;;0.90;;
48665;SDS011;34452;50.796;4.994;2022-10-16T16:14:04;8.60;;;2.95;;
48665;SDS011;34452;50.796;4.994;2022-10-16T16:16:31;16.83;;;6.50;;
48665;SDS011;34452;50.796;4.994;2022-10-16T16:19:02;11.45;;;5.82;;
48665;SDS011;34452;50.796;4.994;2022-10-16T16:23:54;9.80;;;5.63;;
48665;SDS011;34452;50.796;4.994;2022-10-16T16:26:23;9.98;;;5.38;;
48665;SDS011;34452;50.796;4.994;2022-10-16T16:28:51;10.57;;;4.53;;
48665;SDS011;34452;50.796;4.994;2022-10-16T16:31:18;6.88;;;3.30;;
48665;SDS011;34452;50.796;4.994;2022-10-16T16:36:11;3.60;;;2.22;;
48665;SDS011;34452;50.796;4.994;2022-10-16T16:38:36;4.25;;;2.28;;
48665;SDS011;34452;50.796;4.994;2022-10-16T16:43:37;4.43;;;2.30;;
48665;SDS011;34452;50.796;4.994;2022-10-16T16:46:03;2.55;;;1.60;;
48665;SDS011;34452;50.796;4.994;2022-10-16T16:48:29;7.32;;;2.20;;
48665;SDS011;34452;50.796;4.994;2022-10-16T16:50:54;3.85;;;1.50;;
48665;SDS011;34452;50.796;4.994;2022-10-16T16:53:21;6.53;;;1.42;;
48665;SDS011;34452;50.796;4.994;2022-10-16T16:55:47;3.88;;;1.50;;
48665;SDS011;34452;50.796;4.994;2022-10-16T16:58:13;3.88;;;1.85;;
48665;SDS011;34452;50.796;4.994;2022-10-16T17:00:45;4.53;;;1.55;;
48665;SDS011;34452;50.796;4.994;2022-10-16T17:03:11;5.00;;;2.20;;
48665;SDS011;34452;50.796;4.994;2022-10-16T17:05:37;2.88;;;1.70;;
48665;SDS011;34452;50.796;4.994;2022-10-16T17:08:06;3.28;;;1.73;;
48665;SDS011;34452;50.796;4.994;2022-10-16T17:10:33;3.80;;;1.88;;
48665;SDS011;34452;50.796;4.994;2022-10-16T17:12:59;4.18;;;2.25;;
48665;SDS011;34452;50.796;4.994;2022-10-16T17:15:24;6.22;;;2.60;;
48665;SDS011;34452;50.796;4.994;2022-10-16T17:17:50;9.93;;;3.38;;
48665;SDS011;34452;50.796;4.994;2022-10-16T17:20:16;10.65;;;3.72;;
48665;SDS011;34452;50.796;4.994;2022-10-16T17:22:42;5.32;;;1.75;;
48665;SDS011;34452;50.796;4.994;2022-10-16T17:25:09;4.18;;;1.50;;
48665;SDS011;34452;50.796;4.994;2022-10-16T17:27:34;3.85;;;1.70;;
48665;SDS011;34452;50.796;4.994;2022-10-16T17:30:00;1.60;;;1.23;;
48665;SDS011;34452;50.796;4.994;2022-10-16T17:34:52;4.20;;;1.98;;
48665;SDS011;34452;50.796;4.994;2022-10-16T17:37:18;7.97;;;2.25;;
48665;SDS011;34452;50.796;4.994;2022-10-16T17:39:44;11.32;;;2.53;;
48665;SDS011;34452;50.796;4.994;2022-10-16T17:42:10;7.05;;;2.55;;
48665;SDS011;34452;50.796;4.994;2022-10-16T17:44:35;10.10;;;2.97;;